createdAt,value
2024-03-14T00:01:08.729Z,4.03
2024-03-14T00:03:38.214Z,4.72
2024-03-14T00:06:06.577Z,4.30
2024-03-14T00:08:34.444Z,4.05
2024-03-14T00:11:03.044Z,4.03
2024-03-14T00:13:31.112Z,4.15
2024-03-14T00:15:58.915Z,3.78
2024-03-14T00:18:27.056Z,3.72
2024-03-14T00:20:55.080Z,4.15
2024-03-14T00:23:24.418Z,4.63
2024-03-14T00:25:53.184Z,4.15
2024-03-14T00:28:20.979Z,3.72
2024-03-14T00:30:50.493Z,4.68
2024-03-14T00:33:18.369Z,4.25
2024-03-14T00:35:46.247Z,3.88
2024-03-14T00:38:15.250Z,4.05
2024-03-14T00:40:44.232Z,4.25
2024-03-14T00:43:15.478Z,4.80
2024-03-14T00:45:43.659Z,4.50
2024-03-14T00:48:12.305Z,4.22
2024-03-14T00:50:42.344Z,4.13
2024-03-14T00:53:10.252Z,4.20
2024-03-14T00:55:38.178Z,4.22
2024-03-14T01:08:56.650Z,4.45
2024-03-14T01:11:24.595Z,4.40
2024-03-14T01:13:52.782Z,4.50
2024-03-14T01:16:20.748Z,4.85
2024-03-14T01:18:51.214Z,4.90
2024-03-14T01:21:21.432Z,3.72
2024-03-14T01:23:49.927Z,4.20
2024-03-14T01:26:17.735Z,4.20
2024-03-14T01:28:45.583Z,4.20
2024-03-14T01:31:13.630Z,4.68
2024-03-14T01:33:41.564Z,4.35
2024-03-14T01:36:09.679Z,4.65
2024-03-14T01:38:37.736Z,4.70
2024-03-14T01:41:06.617Z,4.35
2024-03-14T01:43:34.583Z,3.97
2024-03-14T01:46:03.671Z,4.10
2024-03-14T01:48:31.573Z,4.13
2024-03-14T01:50:59.451Z,4.60
2024-03-14T01:53:27.368Z,4.32
2024-03-14T01:55:55.221Z,4.13
2024-03-14T01:58:27.539Z,4.88
2024-03-14T02:00:55.383Z,19.05
2024-03-14T02:03:23.701Z,13.70
2024-03-14T02:05:51.876Z,5.25
2024-03-14T02:08:21.224Z,4.47
2024-03-14T02:10:49.023Z,4.30
2024-03-14T02:13:16.798Z,4.45
2024-03-14T02:15:45.137Z,4.57
2024-03-14T02:18:14.320Z,5.10
2024-03-14T02:20:42.232Z,4.53
2024-03-14T02:23:10.061Z,4.43
2024-03-14T02:25:40.321Z,4.35
2024-03-14T02:28:08.206Z,4.32
2024-03-14T02:30:36.118Z,3.90
2024-03-14T02:33:04.392Z,4.10
2024-03-14T02:35:32.526Z,4.35
2024-03-14T02:38:00.396Z,3.53
2024-03-14T02:40:29.441Z,3.70
2024-03-14T02:42:57.265Z,3.58
2024-03-14T02:45:27.999Z,3.33
2024-03-14T02:47:56.046Z,3.83
2024-03-14T02:50:23.976Z,3.92
2024-03-14T02:52:51.803Z,3.75
2024-03-14T02:55:19.591Z,3.72
2024-03-14T02:57:47.533Z,3.33
2024-03-14T03:00:18.695Z,3.92
2024-03-14T03:02:46.678Z,3.72
2024-03-14T03:05:14.851Z,3.72
2024-03-14T03:07:45.045Z,3.20
2024-03-14T03:10:13.872Z,4.40
2024-03-14T03:12:41.756Z,3.53
2024-03-14T03:15:10.623Z,4.32
2024-03-14T03:17:40.193Z,3.97
2024-03-14T03:20:11.587Z,4.45
2024-03-14T03:22:57.640Z,3.30
2024-03-14T03:25:25.812Z,3.53
2024-03-14T03:27:52.962Z,3.78
2024-03-14T03:30:21.140Z,3.92
2024-03-14T03:32:48.107Z,4.00
2024-03-14T03:35:20.920Z,3.97
2024-03-14T03:37:49.047Z,3.42
2024-03-14T03:40:23.367Z,3.38
2024-03-14T03:42:52.905Z,3.80
2024-03-14T03:45:21.446Z,3.75
2024-03-14T03:47:52.711Z,3.20
2024-03-14T03:50:19.547Z,3.30
2024-03-14T03:52:47.791Z,3.80
2024-03-14T03:55:18.162Z,3.45
2024-03-14T03:57:46.433Z,3.53
2024-03-14T04:00:40.409Z,3.50
2024-03-14T04:03:10.997Z,3.65
2024-03-14T04:05:39.392Z,3.28
2024-03-14T04:08:06.842Z,3.20
2024-03-14T04:10:35.013Z,3.00
2024-03-14T04:13:01.925Z,2.88
2024-03-14T04:15:30.758Z,2.97
2024-03-14T04:17:58.906Z,2.90
2024-03-14T04:20:28.510Z,2.83
2024-03-14T04:22:56.377Z,2.72
2024-03-14T04:25:24.252Z,3.20
2024-03-14T04:28:38.388Z,3.42
2024-03-14T04:31:54.857Z,3.15
2024-03-14T04:35:10.521Z,3.05
2024-03-14T04:38:58.600Z,3.17
2024-03-14T05:18:23.403Z,2.97
2024-03-14T05:36:51.776Z,3.70
2024-03-14T05:43:47.120Z,2.78
2024-03-14T05:46:24.621Z,3.22
2024-03-14T05:48:59.738Z,2.95
2024-03-14T05:51:30.278Z,3.28
2024-03-14T05:54:07.234Z,3.67
2024-03-14T05:56:44.292Z,3.25
2024-03-14T05:59:16.665Z,3.28
2024-03-14T06:01:59.636Z,3.30
2024-03-14T06:04:43.642Z,3.25
2024-03-14T06:07:13.291Z,3.45
2024-03-14T06:09:44.994Z,3.50
2024-03-14T06:12:14.339Z,3.10
2024-03-14T06:14:47.290Z,3.50
2024-03-14T06:17:19.067Z,3.75
2024-03-14T06:19:53.710Z,3.90
2024-03-14T06:22:25.168Z,4.13
2024-03-14T06:25:07.513Z,4.47
2024-03-14T06:27:50.471Z,4.03
2024-03-14T06:30:59.873Z,4.30
2024-03-14T06:36:28.996Z,4.63
2024-03-14T06:39:12.924Z,3.72
2024-03-14T06:42:02.294Z,3.70
2024-03-14T06:44:30.453Z,3.67
2024-03-14T06:47:11.060Z,4.82
2024-03-14T06:49:44.170Z,4.15
2024-03-14T06:52:20.856Z,3.92
2024-03-14T06:55:07.523Z,4.10
2024-03-14T06:57:36.210Z,4.00
2024-03-14T07:00:13.093Z,4.13
2024-03-14T07:02:42.186Z,4.03
2024-03-14T07:05:11.282Z,4.13
2024-03-14T07:07:59.633Z,4.25
2024-03-14T07:11:12.598Z,4.20
2024-03-14T07:13:43.806Z,4.00
2024-03-14T07:16:14.802Z,3.92
2024-03-14T07:18:56.501Z,4.07
2024-03-14T07:21:27.515Z,3.20
2024-03-14T07:23:57.974Z,3.60
2024-03-14T07:26:33.690Z,3.60
2024-03-14T07:29:14.122Z,3.20
2024-03-14T07:32:00.140Z,3.40
2024-03-14T07:34:29.872Z,3.60
2024-03-14T07:37:09.825Z,3.47
2024-03-14T07:39:39.073Z,3.13
2024-03-14T07:42:07.877Z,2.95
2024-03-14T07:44:38.535Z,3.00
2024-03-14T07:47:10.630Z,3.67
2024-03-14T07:49:41.169Z,3.10
2024-03-14T07:52:12.941Z,2.60
2024-03-14T07:57:20.666Z,3.20
2024-03-14T08:02:59.067Z,3.05
2024-03-14T08:05:35.858Z,2.75
2024-03-14T08:08:40.392Z,3.00
2024-03-14T08:14:42.346Z,2.00
2024-03-14T08:17:26.361Z,2.30
2024-03-14T08:30:41.264Z,2.67
2024-03-14T08:33:37.284Z,2.70
2024-03-14T08:46:38.932Z,2.55
2024-03-14T08:49:07.656Z,4.55
2024-03-14T08:51:39.457Z,3.90
2024-03-14T08:54:15.296Z,2.35
2024-03-14T08:56:43.207Z,2.78
2024-03-14T08:59:18.244Z,2.50
2024-03-14T09:01:47.362Z,2.95
2024-03-14T09:04:24.246Z,3.08
2024-03-14T09:06:56.855Z,2.70
2024-03-14T09:09:39.664Z,2.45
2024-03-14T09:12:18.209Z,2.38
2024-03-14T09:15:11.523Z,3.05
2024-03-14T09:17:45.707Z,4.20
2024-03-14T09:20:18.275Z,4.30
2024-03-14T09:22:46.887Z,2.13
2024-03-14T09:25:16.862Z,2.88
2024-03-14T09:27:57.456Z,2.42
2024-03-14T09:30:28.303Z,3.10
2024-03-14T09:32:58.303Z,3.10
2024-03-14T09:35:34.784Z,3.10
2024-03-14T09:38:30.655Z,3.55
2024-03-14T09:44:16.690Z,5.00
2024-03-14T09:46:48.295Z,6.88
2024-03-14T09:51:46.384Z,3.60
2024-03-14T09:54:16.318Z,3.65
2024-03-14T09:56:50.801Z,2.80
2024-03-14T09:59:19.400Z,3.03
2024-03-14T10:01:47.856Z,4.18
2024-03-14T10:04:17.526Z,2.60
2024-03-14T10:06:54.647Z,4.00
2024-03-14T10:09:28.114Z,4.97
2024-03-14T10:12:03.908Z,3.88
2024-03-14T10:14:43.286Z,3.30
2024-03-14T10:17:11.835Z,3.50
2024-03-14T10:19:39.689Z,3.00
2024-03-14T10:22:08.178Z,3.10
2024-03-14T10:24:36.421Z,3.33
2024-03-14T10:27:06.439Z,3.72
2024-03-14T10:29:34.534Z,4.03
2024-03-14T10:32:05.671Z,3.85
2024-03-14T10:34:34.574Z,2.17
2024-03-14T10:37:02.689Z,5.10
2024-03-14T10:39:30.914Z,3.92
2024-03-14T10:41:58.820Z,2.47
2024-03-14T10:44:26.830Z,3.30
2024-03-14T10:46:54.829Z,2.60
2024-03-14T10:49:23.605Z,2.80
2024-03-14T10:51:52.992Z,2.10
2024-03-14T10:54:23.070Z,2.35
2024-03-14T10:56:50.979Z,2.13
2024-03-14T10:59:21.166Z,2.13
2024-03-14T11:01:54.252Z,2.03
2024-03-14T11:04:22.366Z,3.00
2024-03-14T11:06:50.648Z,2.30
2024-03-14T11:09:19.017Z,1.80
2024-03-14T11:11:54.758Z,2.15
2024-03-14T11:14:23.046Z,1.95
2024-03-14T11:16:50.834Z,1.67
2024-03-14T11:19:18.914Z,1.70
2024-03-14T11:21:47.001Z,1.90
2024-03-14T11:24:14.972Z,1.90
2024-03-14T11:26:44.845Z,1.63
2024-03-14T11:32:57.759Z,1.88
2024-03-14T11:36:45.446Z,2.00
2024-03-14T11:39:17.577Z,1.52
2024-03-14T11:41:46.921Z,1.65
2024-03-14T11:44:16.689Z,1.70
2024-03-14T11:46:45.586Z,1.60
2024-03-14T11:49:17.284Z,1.52
2024-03-14T11:51:48.847Z,1.90
2024-03-14T11:54:19.248Z,2.03
2024-03-14T11:56:58.250Z,1.40
2024-03-14T11:59:26.045Z,1.48
2024-03-14T12:01:57.212Z,1.33
2024-03-14T12:04:26.568Z,7.72
2024-03-14T12:06:54.450Z,1.60
2024-03-14T12:09:24.638Z,1.92
2024-03-14T12:11:52.650Z,1.40
2024-03-14T12:14:20.684Z,2.42
2024-03-14T12:16:49.748Z,1.65
2024-03-14T12:19:17.835Z,1.45
2024-03-14T12:21:46.468Z,1.30
2024-03-14T12:24:14.878Z,1.35
2024-03-14T12:26:43.493Z,1.17
2024-03-14T12:29:11.456Z,1.20
2024-03-14T12:31:39.379Z,1.60
2024-03-14T12:34:07.884Z,1.17
2024-03-14T12:39:21.878Z,1.13
2024-03-14T12:41:51.473Z,1.27
2024-03-14T12:44:25.552Z,1.38
2024-03-14T12:46:54.231Z,1.30
2024-03-14T12:49:26.557Z,1.20
2024-03-14T12:51:58.386Z,1.10
2024-03-14T12:54:36.121Z,1.70
2024-03-14T12:57:07.335Z,5.15
2024-03-14T12:59:40.668Z,1.52
2024-03-14T13:02:11.964Z,1.35
2024-03-14T13:04:44.156Z,1.10
2024-03-14T13:07:20.273Z,1.40
2024-03-14T13:10:12.368Z,1.48
2024-03-14T13:12:42.001Z,1.48
2024-03-14T13:15:19.467Z,1.40
2024-03-14T13:17:49.472Z,1.52
2024-03-14T13:20:20.073Z,1.48
2024-03-14T13:22:51.104Z,1.30
2024-03-14T13:25:19.476Z,1.30
2024-03-14T13:27:48.030Z,1.23
2024-03-14T13:30:21.158Z,1.40
2024-03-14T13:32:57.808Z,1.33
2024-03-14T13:35:32.366Z,1.05
2024-03-14T13:38:00.980Z,1.00
2024-03-14T13:40:32.617Z,1.63
2024-03-14T13:43:16.908Z,1.25
2024-03-14T13:45:53.665Z,1.20
2024-03-14T13:48:22.215Z,1.17
2024-03-14T13:50:51.703Z,1.40
2024-03-14T13:53:32.207Z,1.23
2024-03-14T13:56:01.742Z,1.33
2024-03-14T13:58:39.871Z,1.45
2024-03-14T14:01:23.402Z,1.15
2024-03-14T14:04:01.002Z,1.23
2024-03-14T14:06:33.970Z,1.50
2024-03-14T14:09:07.984Z,1.10
2024-03-14T14:11:47.182Z,1.15
2024-03-14T14:16:50.393Z,1.20
2024-03-14T14:19:22.470Z,3.25
2024-03-14T14:21:52.882Z,5.20
2024-03-14T14:24:25.132Z,1.15
2024-03-14T14:26:58.515Z,1.05
2024-03-14T14:29:27.215Z,1.23
2024-03-14T14:31:55.457Z,1.27
2024-03-14T14:34:23.928Z,1.15
2024-03-14T14:36:52.269Z,1.30
2024-03-14T14:39:20.592Z,1.45
2024-03-14T14:41:48.367Z,1.30
2024-03-14T14:44:16.689Z,1.20
2024-03-14T14:46:45.068Z,1.05
2024-03-14T14:49:14.804Z,1.20
2024-03-14T14:51:43.663Z,1.00
2024-03-14T14:54:11.514Z,1.50
2024-03-14T14:56:45.038Z,1.40
2024-03-14T14:59:13.235Z,1.60
2024-03-14T15:01:41.073Z,1.23
2024-03-14T15:04:08.920Z,1.27
2024-03-14T15:06:39.139Z,1.40
2024-03-14T15:09:10.257Z,1.10
2024-03-14T15:11:38.731Z,1.10
2024-03-14T15:14:06.719Z,0.98
2024-03-14T15:16:36.803Z,1.50
2024-03-14T15:19:08.788Z,1.08
2024-03-14T15:21:46.689Z,1.40
2024-03-14T15:24:21.740Z,1.65
2024-03-14T15:26:56.598Z,1.20
2024-03-14T15:29:25.302Z,1.25
2024-03-14T15:31:58.174Z,1.40
2024-03-14T15:34:30.053Z,1.08
2024-03-14T15:39:33.119Z,1.40
2024-03-14T15:42:30.545Z,1.33
2024-03-14T15:45:09.459Z,1.75
2024-03-14T15:47:41.264Z,1.17
2024-03-14T15:52:52.409Z,1.20
2024-03-14T15:55:29.929Z,1.50
2024-03-14T15:58:12.581Z,1.65
2024-03-14T16:00:53.493Z,1.35
2024-03-14T16:03:27.487Z,1.20
2024-03-14T16:06:00.522Z,1.30
2024-03-14T16:08:55.025Z,1.70
2024-03-14T16:11:32.360Z,2.05
2024-03-14T16:14:05.004Z,1.80
2024-03-14T16:16:42.092Z,1.20
2024-03-14T16:19:27.611Z,1.50
2024-03-14T16:22:16.280Z,1.40
2024-03-14T16:25:00.742Z,1.33
2024-03-14T16:27:36.471Z,1.20
2024-03-14T16:30:05.656Z,1.67
2024-03-14T16:32:38.230Z,1.75
2024-03-14T16:35:17.346Z,2.00
2024-03-14T16:37:45.903Z,1.65
2024-03-14T16:40:13.898Z,1.92
2024-03-14T16:42:41.775Z,1.60
2024-03-14T16:45:09.802Z,1.80
2024-03-14T16:47:37.687Z,2.40
2024-03-14T16:50:05.940Z,1.90
2024-03-14T16:52:34.685Z,1.50
2024-03-14T16:55:02.506Z,1.40
2024-03-14T16:57:30.365Z,1.55
2024-03-14T16:59:58.370Z,1.70
2024-03-14T17:02:26.866Z,1.83
2024-03-14T17:04:55.590Z,1.83
2024-03-14T17:07:25.621Z,1.50
2024-03-14T17:09:53.447Z,2.10
2024-03-14T17:12:21.333Z,1.70
2024-03-14T17:14:50.905Z,1.65
2024-03-14T17:17:21.836Z,1.52
2024-03-14T17:19:50.790Z,2.00
2024-03-14T17:22:18.841Z,1.75
2024-03-14T17:24:47.375Z,1.70
2024-03-14T17:27:15.343Z,1.90
2024-03-14T17:29:43.597Z,1.90
2024-03-14T17:32:11.429Z,1.90
2024-03-14T17:34:40.020Z,1.83
2024-03-14T17:37:07.910Z,1.60
2024-03-14T17:39:35.834Z,2.00
2024-03-14T17:42:03.770Z,2.00
2024-03-14T17:44:32.061Z,2.20
2024-03-14T17:47:00.137Z,2.03
2024-03-14T17:49:30.973Z,2.20
2024-03-14T17:51:59.257Z,2.30
2024-03-14T17:54:27.238Z,1.95
2024-03-14T17:57:09.701Z,2.00
2024-03-14T17:59:38.528Z,1.83
2024-03-14T18:02:13.910Z,1.65
2024-03-14T18:04:50.149Z,2.08
2024-03-14T18:07:18.029Z,2.78
2024-03-14T18:09:46.072Z,2.25
2024-03-14T18:12:14.144Z,2.40
2024-03-14T18:14:42.170Z,2.13
2024-03-14T18:17:24.028Z,1.75
2024-03-14T18:19:55.207Z,1.83
2024-03-14T18:22:30.361Z,2.20
2024-03-14T18:25:03.977Z,2.35
2024-03-14T19:20:46.915Z,4.00
2024-03-14T19:23:51.676Z,3.50
2024-03-14T19:26:43.130Z,4.00
2024-03-14T19:36:10.584Z,3.95
2024-03-14T19:38:42.617Z,3.78
2024-03-14T19:41:11.852Z,3.63
2024-03-14T19:43:40.578Z,3.80
2024-03-14T19:46:09.170Z,3.28
2024-03-14T19:48:43.855Z,3.22
2024-03-14T19:51:13.053Z,3.25
2024-03-14T19:53:40.994Z,3.38
2024-03-14T19:56:11.350Z,3.28
2024-03-14T19:58:41.389Z,3.38
2024-03-14T20:01:09.406Z,3.55
2024-03-14T20:03:38.032Z,2.80
2024-03-14T20:06:06.835Z,2.85
2024-03-14T20:08:39.064Z,2.70
2024-03-14T20:11:09.190Z,3.00
2024-03-14T20:13:39.009Z,2.70
2024-03-14T20:16:07.122Z,3.50
2024-03-14T20:18:35.167Z,6.70
2024-03-14T20:21:06.164Z,4.63
2024-03-14T20:23:40.362Z,4.90
2024-03-14T20:26:10.270Z,4.78
2024-03-14T20:28:38.482Z,3.92
2024-03-14T20:31:06.568Z,4.28
2024-03-14T20:33:34.822Z,3.35
2024-03-14T20:36:07.918Z,3.60
2024-03-14T20:38:36.070Z,3.22
2024-03-14T20:41:06.984Z,2.97
2024-03-14T20:43:42.108Z,3.38
2024-03-14T20:46:11.785Z,3.10
2024-03-14T20:48:39.825Z,3.58
2024-03-14T20:51:07.735Z,3.83
2024-03-14T20:53:35.894Z,4.43
2024-03-14T20:56:08.398Z,5.47
2024-03-14T20:58:41.661Z,3.33
2024-03-14T21:01:14.137Z,3.42
2024-03-14T21:03:48.798Z,4.35
2024-03-14T21:06:27.357Z,3.33
2024-03-14T21:11:25.722Z,3.10
2024-03-14T21:13:53.643Z,2.40
2024-03-14T21:16:23.306Z,3.20
2024-03-14T21:18:51.820Z,2.97
2024-03-14T21:21:21.864Z,3.85
2024-03-14T21:23:49.907Z,3.75
2024-03-14T21:26:17.888Z,3.65
2024-03-14T21:28:45.693Z,3.53
2024-03-14T21:31:14.730Z,3.35
2024-03-14T21:33:42.841Z,3.17
2024-03-14T21:36:11.740Z,3.20
2024-03-14T21:38:39.634Z,3.83
2024-03-14T21:41:07.616Z,3.35
2024-03-14T21:43:36.650Z,3.60
2024-03-14T21:46:06.452Z,3.17
2024-03-14T21:48:34.482Z,3.28
2024-03-14T21:51:03.621Z,3.30
2024-03-14T21:53:31.895Z,3.17
2024-03-14T21:56:00.057Z,3.25
2024-03-14T21:58:32.025Z,3.30
2024-03-14T22:01:07.126Z,3.30
2024-03-14T22:03:37.273Z,3.50
2024-03-14T22:06:09.115Z,3.20
2024-03-14T22:08:37.337Z,3.08
2024-03-14T22:11:05.433Z,3.40
2024-03-14T22:13:33.396Z,3.45
2024-03-14T22:16:01.348Z,3.72
2024-03-14T22:18:32.396Z,3.30
2024-03-14T22:21:00.228Z,3.45
2024-03-14T22:23:28.044Z,3.33
2024-03-14T22:25:58.414Z,3.78
2024-03-14T22:28:26.192Z,3.30
2024-03-14T22:31:00.055Z,3.50
2024-03-14T22:33:35.609Z,3.45
2024-03-14T22:36:04.649Z,3.60
2024-03-14T22:38:32.740Z,3.47
2024-03-14T22:41:07.408Z,4.00
2024-03-14T22:43:38.696Z,3.95
2024-03-14T22:46:06.520Z,3.65
2024-03-14T22:48:34.538Z,3.47
2024-03-14T22:51:02.567Z,3.28
2024-03-14T22:53:32.182Z,3.80
2024-03-14T22:56:00.442Z,4.05
2024-03-14T22:58:29.014Z,4.07
2024-03-14T23:00:58.510Z,3.65
2024-03-14T23:03:29.138Z,3.72
2024-03-14T23:05:57.142Z,3.75
2024-03-14T23:08:26.611Z,3.75
2024-03-14T23:10:54.779Z,3.20
2024-03-14T23:13:25.811Z,3.80
2024-03-14T23:15:54.054Z,3.50
2024-03-14T23:18:22.091Z,3.75
2024-03-14T23:20:52.820Z,3.47
2024-03-14T23:23:21.167Z,4.03
2024-03-14T23:25:49.359Z,3.05
2024-03-14T23:28:18.481Z,3.53
2024-03-14T23:30:50.097Z,3.72
2024-03-14T23:33:18.609Z,3.55
2024-03-14T23:35:47.666Z,3.38
2024-03-14T23:38:15.556Z,3.25
2024-03-14T23:40:43.347Z,4.03
2024-03-14T23:43:14.735Z,3.70
2024-03-14T23:45:42.928Z,3.13
2024-03-14T23:48:13.218Z,3.20
2024-03-14T23:50:41.143Z,3.08
2024-03-14T23:53:08.973Z,3.70
2024-03-14T23:55:38.150Z,3.08
2024-03-14T23:58:07.346Z,3.50
